createdAt,value
2024-05-09T00:00:36.403Z,12.09
2024-05-09T00:03:08.426Z,12.04
2024-05-09T00:05:37.019Z,11.92
2024-05-09T00:08:04.505Z,11.87
2024-05-09T00:10:36.494Z,11.88
2024-05-09T00:13:09.116Z,11.82
2024-05-09T00:15:36.961Z,11.80
2024-05-09T00:18:05.448Z,11.82
2024-05-09T00:20:38.229Z,11.88
2024-05-09T00:23:12.310Z,11.89
2024-05-09T00:25:40.380Z,11.98
2024-05-09T00:28:07.184Z,12.06
2024-05-09T00:30:36.349Z,12.12
2024-05-09T00:33:06.261Z,12.16
2024-05-09T00:35:34.645Z,12.20
2024-05-09T00:38:01.732Z,12.20
2024-05-09T00:40:39.087Z,12.21
2024-05-09T00:43:09.020Z,12.23
2024-05-09T00:45:36.005Z,12.25
2024-05-09T00:48:06.759Z,12.26
2024-05-09T00:50:37.567Z,12.27
2024-05-09T00:53:06.849Z,12.26
2024-05-09T00:55:36.075Z,12.25
2024-05-09T00:58:03.507Z,12.26
2024-05-09T01:00:35.857Z,12.21
2024-05-09T01:03:06.683Z,12.16
2024-05-09T01:05:35.060Z,12.09
2024-05-09T01:08:02.989Z,12.08
2024-05-09T01:10:34.513Z,12.03
2024-05-09T01:13:03.882Z,12.07
2024-05-09T01:15:30.772Z,12.09
2024-05-09T01:17:59.499Z,12.09
2024-05-09T01:20:37.018Z,12.12
2024-05-09T01:23:10.026Z,12.14
2024-05-09T01:25:37.194Z,12.15
2024-05-09T01:28:04.318Z,12.14
2024-05-09T01:30:35.539Z,12.10
2024-05-09T01:33:06.143Z,12.12
2024-05-09T01:35:34.532Z,12.11
2024-05-09T01:38:01.387Z,12.10
2024-05-09T01:40:37.018Z,12.14
2024-05-09T01:43:07.107Z,12.14
2024-05-09T01:45:34.016Z,12.14
2024-05-09T01:48:01.326Z,12.11
2024-05-09T01:50:37.843Z,12.10
2024-05-09T01:53:12.771Z,12.10
2024-05-09T01:55:40.074Z,12.07
2024-05-09T01:58:07.466Z,12.02
2024-05-09T02:00:39.661Z,12.00
2024-05-09T02:03:15.755Z,11.97
2024-05-09T02:05:45.770Z,11.97
2024-05-09T02:08:18.159Z,11.91
2024-05-09T02:10:47.155Z,11.91
2024-05-09T02:13:14.889Z,11.88
2024-05-09T02:15:41.815Z,11.88
2024-05-09T02:18:10.278Z,11.85
2024-05-09T02:20:42.061Z,11.77
2024-05-09T02:23:09.878Z,11.78
2024-05-09T02:25:36.846Z,11.75
2024-05-09T02:28:03.777Z,11.77
2024-05-09T02:30:38.836Z,11.73
2024-05-09T02:33:13.438Z,11.75
2024-05-09T02:35:41.879Z,11.74
2024-05-09T02:38:09.744Z,11.75
2024-05-09T02:40:38.919Z,11.75
2024-05-09T02:43:08.415Z,11.75
2024-05-09T02:45:36.458Z,11.76
2024-05-09T02:48:03.533Z,11.73
2024-05-09T02:50:37.344Z,11.68
2024-05-09T02:53:07.332Z,11.72
2024-05-09T02:55:34.357Z,11.77
2024-05-09T02:58:01.256Z,11.78
2024-05-09T03:00:36.690Z,11.74
2024-05-09T03:03:12.799Z,11.73
2024-05-09T03:05:42.342Z,11.73
2024-05-09T03:08:09.827Z,11.67
2024-05-09T03:10:38.694Z,11.63
2024-05-09T03:13:07.833Z,11.59
2024-05-09T03:15:34.722Z,11.57
2024-05-09T03:18:01.875Z,11.44
2024-05-09T03:20:34.071Z,11.40
2024-05-09T03:23:03.276Z,11.34
2024-05-09T03:25:30.354Z,11.30
2024-05-09T03:27:57.200Z,11.30
2024-05-09T03:30:36.004Z,11.29
2024-05-09T03:33:19.220Z,11.26
2024-05-09T03:35:47.565Z,11.22
2024-05-09T03:38:14.855Z,11.21
2024-05-09T03:40:49.908Z,11.25
2024-05-09T03:43:18.385Z,11.32
2024-05-09T03:45:45.834Z,11.35
2024-05-09T03:48:13.338Z,11.36
2024-05-09T03:50:40.456Z,11.34
2024-05-09T03:53:10.648Z,11.36
2024-05-09T03:55:37.593Z,11.41
2024-05-09T03:58:04.784Z,11.43
2024-05-09T04:00:37.651Z,11.46
2024-05-09T04:03:09.412Z,11.53
2024-05-09T04:05:40.045Z,11.56
2024-05-09T04:08:07.716Z,11.63
2024-05-09T04:10:35.382Z,11.67
2024-05-09T04:13:03.572Z,11.71
2024-05-09T04:15:30.866Z,11.75
2024-05-09T04:17:57.843Z,11.77
2024-05-09T04:20:35.783Z,11.82
2024-05-09T04:23:07.233Z,11.86
2024-05-09T04:25:34.948Z,11.92
2024-05-09T04:28:01.685Z,11.95
2024-05-09T04:30:37.385Z,11.92
2024-05-09T04:33:09.122Z,11.79
2024-05-09T04:35:38.258Z,11.78
2024-05-09T04:38:05.964Z,11.81
2024-05-09T04:40:35.888Z,11.79
2024-05-09T04:43:05.288Z,11.83
2024-05-09T04:45:32.512Z,11.87
2024-05-09T04:47:59.754Z,11.95
2024-05-09T04:50:35.515Z,11.96
2024-05-09T04:53:06.480Z,12.04
2024-05-09T04:55:33.991Z,12.13
2024-05-09T04:58:01.170Z,12.15
2024-05-09T05:00:35.796Z,12.20
2024-05-09T05:03:10.854Z,12.32
2024-05-09T05:05:41.231Z,12.28
2024-05-09T05:08:19.273Z,12.33
2024-05-09T05:10:47.471Z,12.30
2024-05-09T05:13:24.916Z,12.35
2024-05-09T05:15:56.083Z,12.41
2024-05-09T05:18:24.596Z,12.50
2024-05-09T05:20:51.990Z,12.59
2024-05-09T05:23:20.409Z,12.73
2024-05-09T05:25:49.483Z,12.84
2024-05-09T05:28:16.884Z,12.97
2024-05-09T05:30:43.951Z,13.04
2024-05-09T05:33:12.489Z,13.16
2024-05-09T05:35:42.786Z,13.26
2024-05-09T05:38:11.097Z,13.47
2024-05-09T05:40:39.151Z,13.67
2024-05-09T05:43:11.214Z,13.84
2024-05-09T05:45:39.189Z,13.93
2024-05-09T05:48:07.389Z,13.99
2024-05-09T05:50:37.394Z,14.15
2024-05-09T05:53:07.407Z,14.29
2024-05-09T05:55:35.366Z,14.45
2024-05-09T05:58:02.731Z,14.59
2024-05-09T06:00:37.315Z,14.77
2024-05-09T06:03:06.356Z,14.94
2024-05-09T06:05:33.518Z,15.12
2024-05-09T06:08:00.674Z,15.17
2024-05-09T06:10:37.090Z,15.12
2024-05-09T06:13:06.834Z,15.21
2024-05-09T06:15:33.622Z,15.34
2024-05-09T06:18:00.678Z,15.40
2024-05-09T06:20:35.174Z,15.43
2024-05-09T06:23:05.337Z,15.55
2024-05-09T06:25:32.322Z,15.63
2024-05-09T06:28:02.515Z,15.70
2024-05-09T06:30:37.901Z,15.85
2024-05-09T06:33:09.251Z,16.15
2024-05-09T06:35:37.248Z,16.19
2024-05-09T06:38:04.584Z,16.21
2024-05-09T06:40:37.773Z,16.61
2024-05-09T06:43:13.150Z,17.22
2024-05-09T06:45:40.251Z,17.78
2024-05-09T06:48:11.924Z,18.82
2024-05-09T06:50:40.440Z,18.79
2024-05-09T06:53:08.471Z,18.69
2024-05-09T06:55:36.412Z,18.38
2024-05-09T06:58:06.069Z,18.33
2024-05-09T07:00:38.933Z,18.24
2024-05-09T07:03:13.050Z,18.26
2024-05-09T07:05:42.243Z,18.31
2024-05-09T07:08:09.194Z,18.38
2024-05-09T07:10:37.056Z,18.67
2024-05-09T07:13:15.152Z,18.89
2024-05-09T07:15:43.478Z,18.80
2024-05-09T07:18:20.104Z,18.53
2024-05-09T07:20:49.027Z,18.06
2024-05-09T07:23:16.852Z,18.32
2024-05-09T07:25:43.698Z,18.62
2024-05-09T07:28:13.377Z,18.68
2024-05-09T07:30:40.212Z,18.96
2024-05-09T07:33:07.041Z,19.05
2024-05-09T07:35:34.498Z,19.09
2024-05-09T07:38:01.445Z,18.82
2024-05-09T07:40:34.887Z,18.87
2024-05-09T07:43:08.366Z,18.86
2024-05-09T07:52:32.646Z,20.55
2024-05-09T07:55:55.744Z,19.59
2024-05-09T07:58:27.471Z,19.07
2024-05-09T08:00:55.034Z,19.05
2024-05-09T08:03:22.731Z,19.18
2024-05-09T08:05:49.852Z,19.35
2024-05-09T08:08:16.763Z,18.95
2024-05-09T08:10:43.789Z,18.83
2024-05-09T08:13:10.833Z,18.89
2024-05-09T08:15:38.185Z,19.10
2024-05-09T08:18:09.175Z,19.39
2024-05-09T08:20:41.510Z,19.50
2024-05-09T08:23:08.474Z,19.21
2024-05-09T08:25:35.276Z,19.43
2024-05-09T08:28:04.681Z,20.02
2024-05-09T08:30:36.772Z,20.70
2024-05-09T08:33:06.477Z,21.50
2024-05-09T08:35:34.413Z,22.29
2024-05-09T08:38:06.289Z,22.85
2024-05-09T08:40:36.314Z,22.37
2024-05-09T08:43:10.103Z,22.52
2024-05-09T08:45:42.692Z,22.05
2024-05-09T08:48:13.100Z,22.48
2024-05-09T08:50:41.309Z,21.91
2024-05-09T08:53:09.245Z,21.97
2024-05-09T08:55:40.631Z,23.35
2024-05-09T08:58:20.971Z,24.35
2024-05-09T09:00:48.683Z,25.32
2024-05-09T09:03:18.694Z,25.67
2024-05-09T09:05:57.371Z,25.43
2024-05-09T09:08:25.901Z,24.88
2024-05-09T09:10:57.680Z,24.33
2024-05-09T09:13:24.519Z,22.73
2024-05-09T09:15:52.171Z,22.55
2024-05-09T09:18:19.389Z,22.91
2024-05-09T09:20:46.280Z,22.88
2024-05-09T09:23:13.158Z,22.74
2024-05-09T09:25:40.870Z,22.62
2024-05-09T09:28:08.344Z,22.27
2024-05-09T09:30:38.808Z,21.41
2024-05-09T09:33:06.842Z,21.06
2024-05-09T09:35:35.943Z,20.93
2024-05-09T09:38:04.627Z,20.44
2024-05-09T09:40:37.548Z,20.15
2024-05-09T09:43:14.806Z,20.24
2024-05-09T09:45:44.240Z,20.19
2024-05-09T09:48:14.715Z,19.93
2024-05-09T09:50:42.094Z,19.74
2024-05-09T09:53:10.404Z,19.50
2024-05-09T09:55:37.918Z,19.15
2024-05-09T09:58:06.473Z,19.34
2024-05-09T10:00:34.787Z,19.10
2024-05-09T10:03:02.239Z,19.10
2024-05-09T10:05:30.253Z,18.76
2024-05-09T10:07:58.750Z,18.98
2024-05-09T10:10:32.377Z,19.37
2024-05-09T10:13:02.950Z,19.34
2024-05-09T10:15:30.009Z,19.40
2024-05-09T10:18:06.690Z,19.42
2024-05-09T10:20:44.042Z,19.43
2024-05-09T10:23:26.000Z,19.86
2024-05-09T10:26:03.694Z,19.91
2024-05-09T10:28:37.694Z,19.58
2024-05-09T10:31:15.454Z,19.91
2024-05-09T10:33:45.365Z,20.42
2024-05-09T10:36:22.645Z,20.80
2024-05-09T10:38:51.119Z,20.93
2024-05-09T10:41:18.631Z,20.54
2024-05-09T10:43:45.735Z,20.63
2024-05-09T10:46:12.917Z,20.65
2024-05-09T10:48:43.475Z,20.70
2024-05-09T10:51:11.215Z,21.07
2024-05-09T10:53:46.018Z,21.25
2024-05-09T10:56:17.151Z,21.18
2024-05-09T10:58:44.267Z,21.12
2024-05-09T11:01:11.822Z,21.02
2024-05-09T11:03:39.581Z,21.02
2024-05-09T11:06:07.360Z,21.29
2024-05-09T11:08:35.999Z,21.71
2024-05-09T11:11:07.722Z,22.07
2024-05-09T11:13:37.068Z,21.71
2024-05-09T11:16:05.370Z,21.08
2024-05-09T11:18:37.887Z,21.40
2024-05-09T11:21:12.986Z,21.71
2024-05-09T11:23:40.625Z,22.22
2024-05-09T11:26:07.551Z,22.46
2024-05-09T11:28:34.457Z,22.24
2024-05-09T11:31:09.750Z,22.25
2024-05-09T11:33:43.734Z,22.02
2024-05-09T11:36:10.860Z,21.71
2024-05-09T11:38:37.746Z,21.52
2024-05-09T11:41:05.734Z,21.69
2024-05-09T11:43:33.135Z,21.88
2024-05-09T11:46:00.898Z,22.31
2024-05-09T11:48:28.245Z,22.58
2024-05-09T11:50:56.946Z,22.91
2024-05-09T11:53:23.740Z,23.26
2024-05-09T11:55:50.781Z,23.53
2024-05-09T11:58:19.065Z,23.69
2024-05-09T12:00:46.968Z,23.91
2024-05-09T12:03:14.177Z,24.50
2024-05-09T12:05:41.345Z,24.71
2024-05-09T12:08:08.301Z,24.81
2024-05-09T12:10:36.638Z,25.05
2024-05-09T12:13:05.960Z,25.37
2024-05-09T12:15:37.160Z,25.40
2024-05-09T12:18:05.511Z,25.21
2024-05-09T12:20:37.713Z,24.41
2024-05-09T12:23:08.665Z,23.90
2024-05-09T12:25:37.732Z,23.45
2024-05-09T12:28:04.797Z,23.03
2024-05-09T12:30:37.540Z,23.11
2024-05-09T12:33:08.461Z,23.01
2024-05-09T12:35:35.711Z,22.90
2024-05-09T12:38:02.943Z,23.05
2024-05-09T12:42:59.512Z,23.74
2024-05-09T12:45:26.270Z,23.78
2024-05-09T12:47:53.172Z,23.22
2024-05-09T12:50:29.116Z,23.15
2024-05-09T12:52:58.805Z,23.18
2024-05-09T12:55:25.587Z,23.07
2024-05-09T12:57:52.406Z,23.27
2024-05-09T13:00:24.132Z,23.70
2024-05-09T13:02:58.033Z,23.32
2024-05-09T13:05:25.124Z,23.39
2024-05-09T13:07:52.136Z,23.67
2024-05-09T13:10:28.718Z,23.72
2024-05-09T13:12:59.752Z,23.87
2024-05-09T13:15:26.942Z,24.02
2024-05-09T13:17:55.839Z,23.64
2024-05-09T13:20:31.647Z,23.17
2024-05-09T13:23:05.885Z,23.19
2024-05-09T13:25:35.004Z,23.31
2024-05-09T13:28:03.132Z,23.32
2024-05-09T13:30:38.644Z,23.26
2024-05-09T13:33:09.101Z,22.97
2024-05-09T13:35:36.359Z,22.12
2024-05-09T13:38:04.667Z,21.90
2024-05-09T13:40:34.777Z,21.96
2024-05-09T13:43:05.996Z,22.16
2024-05-09T13:45:33.724Z,22.27
2024-05-09T13:48:02.365Z,22.26
2024-05-09T13:50:35.950Z,22.18
2024-05-09T13:53:07.474Z,21.95
2024-05-09T13:55:38.323Z,21.98
2024-05-09T13:58:06.023Z,22.10
2024-05-09T14:00:43.828Z,22.38
2024-05-09T14:03:16.491Z,22.70
2024-05-09T14:05:44.783Z,22.59
2024-05-09T14:08:12.030Z,22.43
2024-05-09T14:10:44.694Z,22.29
2024-05-09T14:13:13.001Z,22.32
2024-05-09T14:15:40.275Z,22.21
2024-05-09T14:18:11.501Z,22.37
2024-05-09T14:20:40.528Z,22.55
2024-05-09T14:23:07.301Z,22.77
2024-05-09T14:25:38.769Z,22.51
2024-05-09T14:28:08.756Z,22.27
2024-05-09T14:30:37.877Z,21.45
2024-05-09T14:33:07.447Z,21.07
2024-05-09T14:35:35.391Z,21.17
2024-05-09T14:38:03.006Z,21.29
2024-05-09T14:40:40.223Z,21.56
2024-05-09T14:43:11.228Z,21.71
2024-05-09T14:45:38.632Z,22.04
2024-05-09T14:48:06.719Z,22.33
2024-05-09T14:50:37.498Z,22.40
2024-05-09T14:53:10.849Z,22.54
2024-05-09T14:55:39.975Z,22.61
2024-05-09T14:58:09.319Z,21.90
2024-05-09T15:00:41.656Z,21.91
2024-05-09T15:03:11.800Z,22.16
2024-05-09T15:05:38.819Z,22.37
2024-05-09T15:08:07.278Z,22.59
2024-05-09T15:10:36.450Z,22.95
2024-05-09T15:13:04.831Z,23.17
2024-05-09T15:15:32.067Z,23.27
2024-05-09T15:17:59.463Z,23.29
2024-05-09T15:20:34.322Z,23.10
2024-05-09T15:23:03.749Z,22.66
2024-05-09T15:25:30.862Z,22.76
2024-05-09T15:27:58.027Z,22.91
2024-05-09T15:30:30.291Z,22.95
2024-05-09T15:32:59.810Z,22.71
2024-05-09T15:35:26.802Z,22.36
2024-05-09T15:37:53.565Z,22.19
2024-05-09T15:40:30.513Z,22.11
2024-05-09T15:43:04.880Z,21.83
2024-05-09T15:45:32.346Z,21.73
2024-05-09T15:47:59.784Z,21.60
2024-05-09T15:50:36.494Z,21.41
2024-05-09T15:53:07.828Z,21.54
2024-05-09T15:55:35.583Z,21.39
2024-05-09T15:58:03.586Z,21.54
2024-05-09T16:00:38.380Z,21.53
2024-05-09T16:03:13.219Z,21.64
2024-05-09T16:05:41.849Z,21.68
2024-05-09T16:08:09.431Z,21.73
2024-05-09T16:10:39.916Z,21.73
2024-05-09T16:13:08.528Z,21.62
2024-05-09T16:15:35.421Z,21.58
2024-05-09T16:18:02.317Z,21.39
2024-05-09T16:20:37.602Z,21.12
2024-05-09T16:23:08.511Z,20.93
2024-05-09T16:25:35.638Z,20.82
2024-05-09T16:28:07.041Z,20.78
2024-05-09T16:30:36.795Z,20.79
2024-05-09T16:33:05.113Z,20.92
2024-05-09T16:35:32.675Z,20.97
2024-05-09T16:38:02.311Z,20.97
2024-05-09T16:40:36.079Z,21.06
2024-05-09T16:43:06.688Z,21.14
2024-05-09T16:45:33.998Z,21.17
2024-05-09T16:48:01.991Z,21.23
2024-05-09T16:50:33.749Z,21.16
2024-05-09T16:53:03.416Z,21.13
2024-05-09T16:55:30.634Z,21.05
2024-05-09T16:57:58.503Z,20.92
2024-05-09T17:00:35.598Z,20.77
2024-05-09T17:03:09.206Z,20.71
2024-05-09T17:05:36.907Z,20.71
2024-05-09T17:08:04.459Z,20.48
2024-05-09T17:10:34.154Z,20.25
2024-05-09T17:13:07.456Z,20.14
2024-05-09T17:15:35.644Z,19.96
2024-05-09T17:18:04.047Z,19.96
2024-05-09T17:20:34.644Z,19.89
2024-05-09T17:23:06.102Z,19.67
2024-05-09T17:25:33.515Z,19.60
2024-05-09T17:28:06.805Z,19.54
2024-05-09T17:30:37.213Z,19.46
2024-05-09T17:33:07.762Z,19.40
2024-05-09T17:35:36.441Z,19.36
2024-05-09T17:38:03.909Z,19.29
2024-05-09T17:40:34.525Z,19.25
2024-05-09T17:43:05.120Z,19.15
2024-05-09T17:45:32.761Z,19.06
2024-05-09T17:48:00.134Z,18.97
2024-05-09T17:50:34.952Z,18.89
2024-05-09T17:53:04.238Z,18.74
2024-05-09T17:55:31.575Z,18.59
2024-05-09T17:57:58.601Z,18.43
2024-05-09T18:00:36.377Z,18.26
2024-05-09T18:03:07.070Z,18.07
2024-05-09T18:05:36.724Z,17.92
2024-05-09T18:08:04.440Z,17.75
2024-05-09T18:10:36.682Z,17.59
2024-05-09T18:13:06.910Z,17.45
2024-05-09T18:15:34.273Z,17.21
2024-05-09T18:18:02.386Z,17.01
2024-05-09T18:20:38.059Z,16.75
2024-05-09T18:23:10.962Z,16.53
2024-05-09T18:25:37.974Z,16.46
2024-05-09T18:28:05.743Z,16.40
2024-05-09T18:30:36.153Z,16.35
2024-05-09T18:33:06.420Z,16.25
2024-05-09T18:35:34.756Z,16.06
2024-05-09T18:38:01.692Z,15.95
2024-05-09T18:40:34.241Z,15.91
2024-05-09T18:43:05.472Z,15.80
2024-05-09T18:45:33.797Z,15.67
2024-05-09T18:48:00.651Z,15.43
2024-05-09T18:50:34.977Z,15.42
2024-05-09T18:53:12.694Z,15.37
2024-05-09T18:55:43.696Z,15.29
2024-05-09T18:58:10.864Z,15.14
2024-05-09T19:00:40.279Z,15.04
2024-05-09T19:03:12.596Z,14.92
2024-05-09T19:05:42.775Z,14.84
2024-05-09T19:08:10.688Z,14.66
2024-05-09T19:10:39.054Z,14.51
2024-05-09T19:13:10.888Z,14.43
2024-05-09T19:15:40.759Z,14.32
2024-05-09T19:18:09.606Z,14.23
2024-05-09T19:20:37.351Z,14.17
2024-05-09T19:23:06.031Z,14.08
2024-05-09T19:25:33.567Z,14.01
2024-05-09T19:28:01.357Z,13.89
2024-05-09T19:30:37.362Z,13.80
2024-05-09T19:33:08.715Z,13.71
2024-05-09T19:35:36.014Z,13.65
2024-05-09T19:38:02.986Z,13.56
2024-05-09T19:40:32.395Z,13.45
2024-05-09T19:43:05.555Z,13.34
2024-05-09T19:45:34.938Z,13.23
2024-05-09T19:48:03.096Z,13.07
2024-05-09T19:50:37.768Z,12.99
2024-05-09T19:53:10.838Z,12.89
2024-05-09T19:55:38.069Z,12.84
2024-05-09T19:58:07.237Z,12.75
2024-05-09T20:00:37.891Z,12.70
2024-05-09T20:03:07.171Z,12.63
2024-05-09T20:05:34.393Z,12.59
2024-05-09T20:08:01.353Z,12.41
2024-05-09T20:10:32.526Z,12.29
2024-05-09T20:13:01.528Z,12.20
2024-05-09T20:15:28.394Z,12.18
2024-05-09T20:17:55.645Z,12.13
2024-05-09T20:20:32.587Z,12.15
2024-05-09T20:23:04.815Z,12.15
2024-05-09T20:25:31.470Z,12.13
2024-05-09T20:27:58.340Z,12.11
2024-05-09T20:30:31.471Z,12.09
2024-05-09T20:33:02.732Z,12.07
2024-05-09T20:35:32.731Z,12.01
2024-05-09T20:38:01.652Z,11.93
2024-05-09T20:40:33.844Z,11.90
2024-05-09T20:43:04.575Z,11.85
2024-05-09T20:45:31.771Z,11.73
2024-05-09T20:47:58.711Z,11.64
2024-05-09T20:50:35.776Z,11.53
2024-05-09T20:53:12.713Z,11.49
2024-05-09T20:55:40.872Z,11.23
2024-05-09T20:58:09.202Z,11.09
2024-05-09T21:00:40.432Z,11.07
2024-05-09T21:03:11.620Z,10.89
2024-05-09T21:05:39.278Z,10.91
2024-05-09T21:08:06.899Z,10.99
2024-05-09T21:10:35.255Z,11.01
2024-05-09T21:13:03.249Z,11.03
2024-05-09T21:15:31.211Z,10.99
2024-05-09T21:17:58.398Z,10.96
2024-05-09T21:20:31.039Z,10.89
2024-05-09T21:22:59.496Z,10.88
2024-05-09T21:25:26.305Z,10.81
2024-05-09T21:27:53.392Z,10.75
2024-05-09T21:30:31.806Z,10.72
2024-05-09T21:33:08.645Z,10.71
2024-05-09T21:35:36.181Z,10.64
2024-05-09T21:38:04.640Z,10.64
2024-05-09T21:40:34.807Z,10.64
2024-05-09T21:43:04.244Z,10.56
2024-05-09T21:45:31.313Z,10.52
2024-05-09T21:47:58.292Z,10.48
2024-05-09T21:50:32.316Z,10.44
2024-05-09T21:53:06.618Z,10.38
2024-05-09T21:55:33.829Z,10.32
2024-05-09T21:58:00.811Z,10.28
2024-05-09T22:00:35.530Z,10.27
2024-05-09T22:03:05.751Z,10.24
2024-05-09T22:05:33.087Z,10.29
2024-05-09T22:08:00.213Z,10.27
2024-05-09T22:10:33.229Z,10.24
2024-05-09T22:13:02.458Z,10.13
2024-05-09T22:15:29.357Z,9.94
2024-05-09T22:17:57.453Z,9.96
2024-05-09T22:20:33.932Z,9.94
2024-05-09T22:23:04.762Z,9.99
2024-05-09T22:25:32.507Z,10.00
2024-05-09T22:28:00.675Z,9.98
2024-05-09T22:30:34.945Z,9.94
2024-05-09T22:33:06.317Z,9.87
2024-05-09T22:35:33.359Z,9.83
2024-05-09T22:38:00.245Z,9.79
2024-05-09T22:40:38.674Z,9.76
2024-05-09T22:43:14.082Z,9.63
2024-05-09T22:45:41.264Z,9.34
2024-05-09T22:48:08.909Z,9.40
2024-05-09T22:50:36.043Z,9.50
2024-05-09T22:53:02.909Z,9.29
2024-05-09T22:55:30.158Z,9.30
2024-05-09T22:57:57.127Z,9.33
2024-05-09T23:02:53.791Z,9.30
2024-05-09T23:05:20.812Z,9.40
2024-05-09T23:07:47.725Z,9.41
2024-05-09T23:10:21.243Z,9.39
2024-05-09T23:12:54.883Z,9.38
2024-05-09T23:15:21.627Z,9.40
2024-05-09T23:17:48.433Z,9.41
2024-05-09T23:20:21.631Z,9.36
2024-05-09T23:22:55.920Z,9.29
2024-05-09T23:25:22.617Z,9.20
2024-05-09T23:27:49.647Z,9.10
2024-05-09T23:30:28.280Z,9.06
2024-05-09T23:33:01.377Z,9.09
2024-05-09T23:35:28.371Z,9.08
2024-05-09T23:37:55.306Z,8.96
2024-05-09T23:40:23.489Z,8.91
2024-05-09T23:42:50.862Z,8.71
2024-05-09T23:45:17.723Z,8.71
2024-05-09T23:47:44.651Z,8.68
2024-05-09T23:50:16.920Z,8.48
2024-05-09T23:52:50.468Z,8.42
2024-05-09T23:55:17.506Z,8.44
2024-05-09T23:57:44.369Z,8.50
